createdAt,value
2018-02-13T00:00:10.159Z,101617.58
2018-02-13T00:02:37.908Z,101465.08
2018-02-13T00:05:05.709Z,101509.56
2018-02-13T00:07:33.466Z,101353.38
2018-02-13T00:10:01.288Z,101312.45
2018-02-13T00:12:52.597Z,101298.23
2018-02-13T00:15:20.392Z,101237.02
2018-02-13T00:17:48.195Z,101286.16
2018-02-13T00:20:15.991Z,101192.42
2018-02-13T00:22:50.506Z,101199.99
2018-02-13T00:25:18.319Z,101097.17
2018-02-13T00:27:46.063Z,101086.14
2018-02-13T00:30:13.877Z,101132.94
2018-02-13T00:32:41.630Z,101126.81
2018-02-13T00:35:09.461Z,101038.72
2018-02-13T00:37:37.278Z,101106.02
2018-02-13T00:40:05.050Z,101104.70
2018-02-13T00:42:32.864Z,101147.68
2018-02-13T00:45:00.643Z,101218.94
2018-02-13T00:47:28.523Z,101126.52
2018-02-13T00:49:56.373Z,101232.33
2018-02-13T00:52:24.193Z,101105.27
2018-02-13T00:54:51.974Z,101152.69
2018-02-13T00:57:19.744Z,101193.80
2018-02-13T00:59:47.530Z,101242.81
2018-02-13T01:02:15.364Z,101239.39
2018-02-13T01:04:43.139Z,101078.62
2018-02-13T01:07:10.964Z,101123.34
2018-02-13T01:09:38.751Z,101041.25
2018-02-13T01:12:06.491Z,101091.09
2018-02-13T01:14:34.328Z,101080.53
2018-02-13T01:17:02.080Z,101168.16
2018-02-13T01:19:29.861Z,101157.62
2018-02-13T01:21:57.598Z,101183.37
2018-02-13T01:24:25.391Z,101304.55
2018-02-13T01:26:53.163Z,101285.68
2018-02-13T01:29:21.047Z,101505.40
2018-02-13T01:31:48.843Z,101357.29
2018-02-13T01:34:17.381Z,101315.73
2018-02-13T01:36:45.133Z,101552.99
2018-02-13T01:39:12.917Z,101605.47
2018-02-13T01:41:40.659Z,101683.09
2018-02-13T01:44:08.440Z,101682.47
2018-02-13T01:46:36.298Z,101632.03
2018-02-13T01:49:04.114Z,101557.53
2018-02-13T01:51:31.846Z,101509.45
2018-02-13T01:53:59.678Z,101401.27
2018-02-13T01:56:27.421Z,101396.45
2018-02-13T01:58:55.260Z,101246.64
2018-02-13T02:01:22.995Z,101228.41
2018-02-13T02:03:50.734Z,101153.34
2018-02-13T02:06:18.522Z,101086.16
2018-02-13T02:08:46.262Z,101112.94
2018-02-13T02:11:14.124Z,100823.64
2018-02-13T02:13:41.886Z,100625.30
2018-02-13T02:16:09.709Z,100747.62
2018-02-13T02:18:37.509Z,100669.00
2018-02-13T02:21:05.296Z,100770.37
2018-02-13T02:23:33.078Z,100581.48
2018-02-13T02:26:00.883Z,100606.08
2018-02-13T02:28:28.617Z,100602.80
2018-02-13T02:30:56.465Z,100649.24
2018-02-13T02:33:24.235Z,100829.80
2018-02-13T02:35:52.085Z,100631.84
2018-02-13T02:38:19.857Z,100637.58
2018-02-13T02:40:47.643Z,100720.95
2018-02-13T02:43:15.460Z,100666.38
2018-02-13T02:45:43.250Z,100691.39
2018-02-13T02:48:11.001Z,100633.05
2018-02-13T02:50:38.851Z,100638.75
2018-02-13T02:53:06.590Z,100609.53
2018-02-13T02:55:34.445Z,100667.56
2018-02-13T02:58:02.251Z,100675.28
2018-02-13T03:00:30.085Z,100623.32
2018-02-13T03:02:57.831Z,100687.56
2018-02-13T03:05:25.613Z,100601.08
2018-02-13T03:07:53.355Z,100582.46
2018-02-13T03:10:21.148Z,100605.16
2018-02-13T03:12:48.926Z,100659.03
2018-02-13T03:15:16.783Z,100636.87
2018-02-13T03:17:44.570Z,100669.88
2018-02-13T03:20:12.382Z,100691.24
2018-02-13T03:22:40.144Z,100702.30
2018-02-13T03:25:07.938Z,100753.00
2018-02-13T03:27:35.791Z,100798.86
2018-02-13T03:30:03.598Z,100834.87
2018-02-13T03:32:31.356Z,100870.75
2018-02-13T03:34:59.165Z,100913.55
2018-02-13T03:37:26.936Z,100881.28
2018-02-13T03:39:54.766Z,100873.34
2018-02-13T03:42:22.507Z,100873.19
2018-02-13T03:44:50.307Z,100920.59
2018-02-13T03:47:18.149Z,100905.91
2018-02-13T03:49:45.967Z,100937.02
2018-02-13T03:52:13.821Z,100909.05
2018-02-13T03:54:41.578Z,100990.30
2018-02-13T03:57:09.371Z,100951.82
2018-02-13T03:59:37.123Z,100919.53
2018-02-13T04:02:04.914Z,100933.14
2018-02-13T04:04:32.660Z,100987.88
2018-02-13T04:07:00.489Z,100928.45
2018-02-13T04:09:28.292Z,100973.03
2018-02-13T04:11:56.091Z,100949.77
2018-02-13T04:14:23.843Z,100960.77
2018-02-13T04:16:51.652Z,100982.61
2018-02-13T04:19:19.417Z,100967.83
2018-02-13T04:21:47.212Z,100972.09
2018-02-13T04:24:15.011Z,101003.88
2018-02-13T04:26:43.645Z,100984.70
2018-02-13T04:29:11.461Z,100986.82
2018-02-13T04:31:39.323Z,100942.89
2018-02-13T04:34:07.082Z,100914.06
2018-02-13T04:36:34.921Z,100913.64
2018-02-13T04:39:02.666Z,100983.02
2018-02-13T04:41:30.472Z,100990.17
2018-02-13T04:43:58.229Z,100985.20
2018-02-13T04:46:26.055Z,101013.39
2018-02-13T04:48:53.806Z,101022.27
2018-02-13T04:51:21.608Z,101023.53
2018-02-13T04:53:49.426Z,101033.82
2018-02-13T04:56:17.203Z,101030.34
2018-02-13T04:58:44.953Z,101031.47
2018-02-13T05:01:12.797Z,101037.99
2018-02-13T05:03:40.618Z,101033.13
2018-02-13T05:06:08.425Z,101023.87
2018-02-13T05:08:36.294Z,101034.42
2018-02-13T05:11:04.147Z,101029.73
2018-02-13T05:13:31.945Z,101018.81
2018-02-13T05:15:59.754Z,101026.19
2018-02-13T05:18:27.548Z,101043.16
2018-02-13T05:20:55.375Z,101030.44
2018-02-13T05:23:23.150Z,101045.41
2018-02-13T05:25:50.971Z,101045.78
2018-02-13T05:28:18.869Z,101063.95
2018-02-13T05:30:46.661Z,101051.44
2018-02-13T05:33:14.548Z,101094.22
2018-02-13T05:35:42.337Z,101062.01
2018-02-13T05:38:10.758Z,101062.81
2018-02-13T05:40:38.552Z,101080.58
2018-02-13T05:43:24.798Z,101080.73
2018-02-13T05:45:52.641Z,101089.48
2018-02-13T05:48:20.477Z,101079.02
2018-02-13T05:50:48.315Z,101120.28
2018-02-13T05:53:16.139Z,101086.55
2018-02-13T05:55:44.006Z,101099.17
2018-02-13T05:58:11.822Z,101100.61
2018-02-13T06:00:39.631Z,101116.86
2018-02-13T06:03:07.456Z,101065.14
2018-02-13T06:05:35.327Z,101096.94
2018-02-13T06:08:03.162Z,101105.30
2018-02-13T06:10:30.987Z,101093.74
2018-02-13T06:12:58.854Z,101050.20
2018-02-13T06:15:26.668Z,100974.69
2018-02-13T06:17:54.515Z,100869.85
2018-02-13T06:20:22.383Z,100842.22
2018-02-13T06:22:50.288Z,100829.44
2018-02-13T06:25:18.148Z,100833.41
2018-02-13T06:27:46.023Z,100829.72
2018-02-13T06:30:13.836Z,100838.76
2018-02-13T06:32:41.754Z,100852.50
2018-02-13T06:35:09.575Z,100839.18
2018-02-13T06:37:37.550Z,100850.09
2018-02-13T06:40:05.344Z,100853.59
2018-02-13T06:42:33.312Z,100857.16
2018-02-13T06:45:01.203Z,100870.95
2018-02-13T06:47:29.156Z,100889.27
2018-02-13T06:49:57.009Z,100813.55
2018-02-13T06:52:24.919Z,100823.17
2018-02-13T06:54:52.769Z,100842.05
2018-02-13T06:57:20.612Z,100872.03
2018-02-13T06:59:48.548Z,100876.98
2018-02-13T07:02:16.432Z,100885.45
2018-02-13T07:04:44.283Z,100892.72
2018-02-13T07:07:12.194Z,100921.08
2018-02-13T07:09:40.072Z,100892.27
2018-02-13T07:12:07.999Z,100938.44
2018-02-13T07:14:35.812Z,100980.59
2018-02-13T07:17:03.747Z,101015.73
2018-02-13T07:19:31.595Z,101058.40
2018-02-13T07:21:59.446Z,101113.98
2018-02-13T07:24:27.260Z,101202.70
2018-02-13T07:26:55.160Z,101281.37
2018-02-13T07:29:23.031Z,101344.05
2018-02-13T07:31:50.879Z,101393.94
2018-02-13T07:34:18.703Z,101468.23
2018-02-13T07:36:46.580Z,101526.14
2018-02-13T07:39:14.523Z,101607.73
2018-02-13T07:41:42.376Z,101701.09
2018-02-13T07:44:10.203Z,101808.53
2018-02-13T07:46:38.021Z,101902.20
2018-02-13T07:49:05.911Z,101960.77
2018-02-13T07:51:33.775Z,102025.50
2018-02-13T07:54:01.712Z,102037.36
2018-02-13T07:56:29.541Z,102058.80
2018-02-13T07:58:57.384Z,102076.64
2018-02-13T08:01:25.308Z,102128.17
2018-02-13T08:03:53.227Z,102169.88
2018-02-13T08:06:21.017Z,102195.35
2018-02-13T08:08:48.957Z,102209.91
2018-02-13T08:11:16.818Z,102171.22
2018-02-13T08:13:44.734Z,102125.72
2018-02-13T08:16:13.441Z,102129.76
2018-02-13T08:18:41.297Z,102143.85
2018-02-13T08:21:09.256Z,102132.38
2018-02-13T08:23:37.125Z,102119.20
2018-02-13T08:26:04.908Z,102084.28
2018-02-13T08:28:32.736Z,102061.14
2018-02-13T08:31:00.626Z,102036.28
2018-02-13T08:33:28.544Z,101967.05
2018-02-13T08:35:56.447Z,101894.42
2018-02-13T08:38:24.355Z,101809.16
2018-02-13T08:40:52.259Z,101710.38
2018-02-13T08:43:20.199Z,101607.34
2018-02-13T08:45:49.611Z,101494.52
2018-02-13T08:48:17.706Z,101336.78
2018-02-13T08:50:45.564Z,101109.39
2018-02-13T08:53:13.529Z,100964.09
2018-02-13T08:55:41.413Z,100949.99
2018-02-13T08:58:09.356Z,100944.52
2018-02-13T09:00:37.300Z,100958.66
2018-02-13T09:03:05.156Z,100964.53
2018-02-13T09:05:33.117Z,100895.19
2018-02-13T09:08:01.136Z,100880.00
2018-02-13T09:10:28.940Z,100875.72
2018-02-13T09:12:56.852Z,100825.00
2018-02-13T09:15:24.806Z,100855.44
2018-02-13T09:17:52.703Z,102290.80
2018-02-13T09:20:20.612Z,101671.19
2018-02-13T09:22:48.395Z,101449.86
2018-02-13T09:25:16.227Z,101351.87
2018-02-13T09:27:44.096Z,101260.48
2018-02-13T09:30:11.952Z,101122.48
2018-02-13T09:32:39.771Z,100990.80
2018-02-13T09:35:07.679Z,101148.58
2018-02-13T09:37:35.568Z,101302.24
2018-02-13T09:40:03.474Z,100197.33
2018-02-13T09:42:31.350Z,100261.28
2018-02-13T09:44:59.236Z,100633.38
2018-02-13T09:47:27.132Z,100763.03
2018-02-13T09:49:55.038Z,100788.23
2018-02-13T09:52:22.940Z,100822.91
2018-02-13T09:54:50.829Z,100814.89
2018-02-13T09:57:18.697Z,100818.62
2018-02-13T09:59:46.556Z,100838.42
2018-02-13T10:02:14.416Z,100793.15
2018-02-13T10:04:42.436Z,100805.30
2018-02-13T10:07:10.307Z,100871.59
2018-02-13T10:09:38.236Z,100890.80
2018-02-13T10:12:06.083Z,100931.41
2018-02-13T10:14:34.020Z,100973.13
2018-02-13T10:17:01.912Z,100999.36
2018-02-13T10:19:29.826Z,101062.23
2018-02-13T10:21:57.750Z,101079.95
2018-02-13T10:24:25.703Z,101111.97
2018-02-13T10:26:53.539Z,101153.33
2018-02-13T10:29:21.458Z,101177.28
2018-02-13T10:31:49.331Z,101147.23
2018-02-13T10:34:17.231Z,101153.91
2018-02-13T10:36:45.087Z,101198.23
2018-02-13T10:39:12.984Z,101319.20
2018-02-13T10:41:41.873Z,100993.09
2018-02-13T10:44:09.754Z,101321.07
2018-02-13T10:46:38.565Z,101344.12
2018-02-13T10:49:06.429Z,101372.76
2018-02-13T10:51:34.316Z,101229.37
2018-02-13T10:54:02.198Z,101136.19
2018-02-13T10:56:30.029Z,101416.32
2018-02-13T10:58:57.959Z,101149.34
2018-02-13T11:01:31.389Z,101396.18
2018-02-13T11:03:59.153Z,101173.80
2018-02-13T11:06:33.849Z,101429.30
2018-02-13T11:09:04.805Z,101411.20
2018-02-13T11:11:32.796Z,101397.50
2018-02-13T11:14:00.638Z,101090.41
2018-02-13T11:16:28.615Z,101089.19
2018-02-13T11:18:56.521Z,101128.35
2018-02-13T11:21:24.492Z,101454.84
2018-02-13T11:23:52.358Z,101439.30
2018-02-13T11:26:20.323Z,101443.69
2018-02-13T11:28:48.133Z,101452.70
2018-02-13T11:31:16.047Z,101442.56
2018-02-13T11:33:43.889Z,101448.55
2018-02-13T11:36:11.696Z,101449.80
2018-02-13T11:38:39.585Z,101454.33
2018-02-13T11:41:07.424Z,101472.73
2018-02-13T11:43:35.308Z,127682.19
2018-02-13T11:46:03.238Z,127682.19
2018-02-13T11:48:31.155Z,127682.19
2018-02-13T11:50:59.064Z,127682.19
2018-02-13T11:53:26.991Z,127682.19
2018-02-13T11:55:54.879Z,127682.19
2018-02-13T11:58:22.808Z,127682.75
2018-02-13T12:00:50.682Z,127682.19
2018-02-13T12:03:18.528Z,127682.19
2018-02-13T12:05:46.399Z,127682.19
2018-02-13T12:08:14.215Z,127682.19
2018-02-13T12:10:42.064Z,127682.19
2018-02-13T12:13:09.844Z,127682.19
2018-02-13T12:15:37.750Z,127682.19
2018-02-13T12:18:05.534Z,127682.19
2018-02-13T12:20:33.374Z,127682.19
2018-02-13T12:23:01.247Z,127682.19
2018-02-13T12:25:40.946Z,127682.19
2018-02-13T12:28:08.851Z,127682.19
2018-02-13T12:30:36.681Z,127682.19
2018-02-13T12:33:04.502Z,127682.19
2018-02-13T12:35:32.292Z,127682.19
2018-02-13T12:38:00.080Z,127682.19
2018-02-13T12:40:27.959Z,127682.19
2018-02-13T12:42:55.814Z,127682.19
2018-02-13T12:45:23.658Z,127682.19
2018-02-13T12:47:51.578Z,127682.19
2018-02-13T12:50:19.339Z,127682.19
2018-02-13T12:52:47.214Z,127682.19
2018-02-13T12:55:15.136Z,127682.19
2018-02-13T12:57:43.093Z,127682.19
2018-02-13T13:00:10.938Z,127682.19
2018-02-13T13:02:38.814Z,127682.19
2018-02-13T13:05:06.694Z,127682.19
2018-02-13T13:07:34.511Z,127682.19
2018-02-13T13:10:02.301Z,127682.19
2018-02-13T13:12:30.174Z,127682.19
2018-02-13T13:14:58.051Z,127682.19
2018-02-13T13:17:26.028Z,127682.19
2018-02-13T13:19:53.985Z,127682.19
2018-02-13T13:22:21.807Z,127682.19
2018-02-13T13:24:49.701Z,127682.19
2018-02-13T13:27:17.507Z,127682.19
2018-02-13T13:29:45.377Z,127682.19
2018-02-13T13:32:13.247Z,127682.19
2018-02-13T13:34:41.072Z,127682.19
2018-02-13T13:37:08.952Z,127682.19
2018-02-13T13:39:36.820Z,127682.19
2018-02-13T13:42:04.712Z,127682.19
2018-02-13T13:44:32.615Z,127682.19
2018-02-13T13:47:00.472Z,127682.19
2018-02-13T13:49:28.318Z,127682.19
2018-02-13T13:51:56.164Z,127682.19
2018-02-13T13:54:23.991Z,127682.19
2018-02-13T13:56:51.825Z,127682.19
2018-02-13T13:59:19.598Z,127682.19
2018-02-13T14:01:47.536Z,127682.19
2018-02-13T14:04:15.420Z,127682.19
2018-02-13T14:06:43.738Z,127682.19
2018-02-13T14:09:11.639Z,127682.19
2018-02-13T14:11:39.526Z,127682.19
2018-02-13T14:14:07.465Z,127682.19
2018-02-13T14:16:35.519Z,127682.19
2018-02-13T14:19:03.953Z,127682.19
2018-02-13T14:21:31.909Z,127682.19
2018-02-13T14:23:59.823Z,127682.19
2018-02-13T14:26:27.719Z,127682.19
2018-02-13T14:28:55.736Z,127682.19
2018-02-13T14:31:23.571Z,101755.50
2018-02-13T14:33:51.481Z,127682.19
2018-02-13T14:36:19.377Z,127682.19
2018-02-13T14:38:47.312Z,127682.19
2018-02-13T14:41:15.126Z,127682.19
2018-02-13T14:43:43.026Z,127682.19
2018-02-13T14:46:10.845Z,101775.71
2018-02-13T14:48:38.802Z,127682.19
2018-02-13T14:51:06.606Z,101782.11
2018-02-13T14:53:34.523Z,101779.06
2018-02-13T14:56:02.357Z,101782.83
2018-02-13T14:58:30.224Z,101792.56
2018-02-13T15:00:58.013Z,101795.17
2018-02-13T15:03:25.845Z,101799.05
2018-02-13T15:05:53.698Z,101803.37
2018-02-13T15:08:21.575Z,101803.69
2018-02-13T15:10:49.440Z,101806.93
2018-02-13T15:13:17.406Z,101810.44
2018-02-13T15:15:45.633Z,101815.78
2018-02-13T15:18:14.356Z,101820.30
2018-02-13T15:20:42.926Z,101827.80
2018-02-13T15:23:11.735Z,101828.84
2018-02-13T15:25:39.827Z,101830.49
2018-02-13T15:28:08.282Z,101835.62
2018-02-13T15:30:36.384Z,101839.69
2018-02-13T15:33:04.593Z,101843.65
2018-02-13T15:35:32.543Z,101842.98
2018-02-13T15:38:01.776Z,101850.98
2018-02-13T15:40:30.954Z,101850.13
2018-02-13T15:42:59.122Z,101854.24
2018-02-13T15:45:26.923Z,101848.61
2018-02-13T15:47:54.826Z,101849.89
2018-02-13T15:50:22.729Z,101851.75
2018-02-13T15:52:50.580Z,101852.38
2018-02-13T15:55:18.368Z,101854.47
2018-02-13T15:57:46.161Z,101856.22
2018-02-13T16:00:13.994Z,101864.96
2018-02-13T16:02:41.821Z,101858.59
2018-02-13T16:05:09.588Z,101867.76
2018-02-13T16:07:37.352Z,101869.17
2018-02-13T16:10:05.280Z,101867.17
2018-02-13T16:12:33.150Z,101861.36
2018-02-13T16:15:01.002Z,101866.91
2018-02-13T16:17:28.816Z,101868.86
2018-02-13T16:19:56.696Z,101876.22
2018-02-13T16:22:24.534Z,101881.08
2018-02-13T16:24:52.429Z,101881.55
2018-02-13T16:27:20.297Z,101878.25
2018-02-13T16:29:48.201Z,101878.63
2018-02-13T16:32:16.033Z,101887.56
2018-02-13T16:34:43.952Z,101885.41
2018-02-13T16:37:11.760Z,101888.78
2018-02-13T16:39:39.688Z,101885.92
2018-02-13T16:42:07.528Z,101887.63
2018-02-13T16:44:35.455Z,101886.69
2018-02-13T16:47:03.378Z,101884.73
2018-02-13T16:49:31.290Z,101886.22
2018-02-13T16:51:59.132Z,101881.69
2018-02-13T16:54:27.033Z,101885.42
2018-02-13T16:56:54.915Z,101866.48
2018-02-13T16:59:22.795Z,101788.87
2018-02-13T17:01:50.612Z,101591.00
2018-02-13T17:04:18.452Z,101312.25
2018-02-13T17:06:46.248Z,101314.84
2018-02-13T17:09:14.194Z,101312.04
2018-02-13T17:11:42.000Z,101319.84
2018-02-13T17:14:09.829Z,101323.65
2018-02-13T17:16:37.604Z,101320.86
2018-02-13T17:19:05.584Z,101317.39
2018-02-13T17:21:33.372Z,101327.09
2018-02-13T17:24:01.177Z,101329.47
2018-02-13T17:26:29.001Z,101337.43
2018-02-13T17:28:56.806Z,101342.07
2018-02-13T17:31:24.639Z,101346.39
2018-02-13T17:33:52.413Z,101346.66
2018-02-13T17:36:20.138Z,101341.64
2018-02-13T17:38:47.937Z,101345.52
2018-02-13T17:41:15.750Z,101351.08
2018-02-13T17:43:43.582Z,101367.02
2018-02-13T17:46:11.323Z,101363.64
2018-02-13T17:48:39.172Z,101381.45
2018-02-13T17:51:06.981Z,101395.20
2018-02-13T17:53:34.778Z,101417.43
2018-02-13T17:56:02.844Z,101341.79
2018-02-13T17:58:31.166Z,101288.42
2018-02-13T18:00:59.382Z,101264.48
2018-02-13T18:03:27.507Z,101255.90
2018-02-13T18:05:55.827Z,101248.10
2018-02-13T18:08:24.193Z,101056.19
2018-02-13T18:10:52.343Z,101122.19
2018-02-13T18:13:20.992Z,101039.76
2018-02-13T18:15:49.183Z,99946.72
2018-02-13T18:18:17.174Z,100624.39
2018-02-13T18:20:45.707Z,100730.67
2018-02-13T18:23:13.786Z,100842.97
2018-02-13T18:25:41.618Z,100910.94
2018-02-13T18:28:09.424Z,100942.34
2018-02-13T18:30:37.272Z,100907.77
2018-02-13T18:33:05.016Z,100856.34
2018-02-13T18:35:32.895Z,100784.06
2018-02-13T18:38:00.692Z,100715.50
2018-02-13T18:40:28.555Z,100627.77
2018-02-13T18:42:56.426Z,100527.86
2018-02-13T18:45:24.339Z,100405.64
2018-02-13T18:47:52.132Z,100335.15
2018-02-13T18:50:19.966Z,100161.25
2018-02-13T18:55:15.594Z,99895.91
2018-02-13T18:57:43.380Z,99790.27
2018-02-13T19:00:11.252Z,99632.38
2018-02-13T19:02:38.968Z,99477.57
2018-02-13T19:05:06.775Z,99394.95
2018-02-13T19:07:34.549Z,99291.41
2018-02-13T19:10:02.355Z,98928.19
2018-02-13T19:12:30.130Z,98880.66
2018-02-13T19:14:58.010Z,97499.73
2018-02-13T19:17:25.796Z,97554.47
2018-02-13T19:19:53.622Z,97442.31
2018-02-13T19:22:21.431Z,97675.11
2018-02-13T19:24:52.069Z,98045.38
2018-02-13T19:27:19.843Z,97893.77
2018-02-13T19:29:47.680Z,98083.67
2018-02-13T19:32:15.470Z,98549.06
2018-02-13T19:34:43.296Z,98573.14
2018-02-13T19:37:11.091Z,98713.16
2018-02-13T19:39:38.989Z,98713.58
2018-02-13T19:42:06.911Z,98894.16
2018-02-13T19:44:34.676Z,99001.13
2018-02-13T19:47:02.627Z,99004.52
2018-02-13T19:49:30.440Z,99036.44
2018-02-13T19:51:58.308Z,98856.45
2018-02-13T19:54:26.132Z,98971.77
2018-02-13T19:56:53.992Z,99054.45
2018-02-13T19:59:21.792Z,99110.34
2018-02-13T20:01:49.713Z,99141.42
2018-02-13T20:04:17.581Z,99164.02
2018-02-13T20:06:45.442Z,99208.81
2018-02-13T20:09:13.281Z,99240.44
2018-02-13T20:11:41.119Z,99274.15
2018-02-13T20:14:08.915Z,99330.63
2018-02-13T20:16:36.760Z,99325.19
2018-02-13T20:19:04.535Z,99344.66
2018-02-13T20:21:32.363Z,99165.25
2018-02-13T20:24:00.133Z,99205.58
2018-02-13T20:26:28.139Z,99233.04
2018-02-13T20:28:55.963Z,99129.91
2018-02-13T20:31:23.796Z,99218.23
2018-02-13T20:33:51.577Z,99171.00
2018-02-13T20:36:19.480Z,99254.37
2018-02-13T20:38:47.270Z,99202.55
2018-02-13T20:41:15.146Z,99259.95
2018-02-13T20:43:42.990Z,99295.41
2018-02-13T20:46:10.863Z,99231.05
2018-02-13T20:48:38.711Z,99261.50
2018-02-13T20:51:06.613Z,99333.84
2018-02-13T20:53:34.431Z,99126.70
2018-02-13T20:56:02.297Z,98945.05
2018-02-13T20:58:30.139Z,98938.70
2018-02-13T21:00:57.968Z,99068.43
2018-02-13T21:03:25.729Z,99165.91
2018-02-13T21:05:53.578Z,99185.95
2018-02-13T21:08:21.374Z,99138.47
2018-02-13T21:10:49.193Z,99125.13
2018-02-13T21:13:16.984Z,99122.32
2018-02-13T21:15:44.847Z,99051.88
2018-02-13T21:18:12.639Z,99125.63
2018-02-13T21:20:40.508Z,99088.22
2018-02-13T21:23:08.352Z,99031.69
2018-02-13T21:25:36.159Z,98971.17
2018-02-13T21:28:04.020Z,98465.25
2018-02-13T21:30:31.873Z,98315.35
2018-02-13T21:32:59.692Z,98646.11
2018-02-13T21:35:27.461Z,98801.84
2018-02-13T21:37:55.309Z,99234.05
2018-02-13T21:40:23.156Z,99573.56
2018-02-13T21:42:51.068Z,99693.39
2018-02-13T21:45:18.844Z,99703.37
2018-02-13T21:47:46.655Z,99772.80
2018-02-13T21:50:14.468Z,99798.50
2018-02-13T21:52:42.298Z,99781.70
2018-02-13T21:55:10.205Z,127682.19
2018-02-13T21:57:38.068Z,127682.19
2018-02-13T22:00:05.967Z,127682.19
2018-02-13T22:02:33.850Z,127682.19
2018-02-13T22:05:01.708Z,127682.19
2018-02-13T22:07:29.548Z,127682.19
2018-02-13T22:09:57.400Z,127682.19
2018-02-13T22:12:25.268Z,127682.19
2018-02-13T22:14:53.087Z,127682.19
2018-02-13T22:17:20.947Z,127682.19
2018-02-13T22:19:48.805Z,127682.19
2018-02-13T22:22:16.589Z,127682.19
2018-02-13T22:24:44.341Z,127682.19
2018-02-13T22:27:12.324Z,127682.19
2018-02-13T22:29:40.104Z,127682.19
2018-02-13T22:32:07.935Z,127682.19
2018-02-13T22:34:35.741Z,127682.19
2018-02-13T22:37:03.587Z,127682.19
2018-02-13T22:39:31.536Z,127682.19
2018-02-13T22:41:59.408Z,127682.19
2018-02-13T22:44:27.281Z,127682.19
2018-02-13T22:46:55.127Z,127682.19
2018-02-13T22:49:22.936Z,127682.19
2018-02-13T22:51:50.756Z,127682.19
2018-02-13T22:54:18.593Z,127682.19
2018-02-13T22:56:46.446Z,127682.19
2018-02-13T22:59:14.296Z,127682.19
2018-02-13T23:01:42.149Z,127682.19
2018-02-13T23:04:09.968Z,127682.19
2018-02-13T23:06:37.778Z,127682.19
2018-02-13T23:09:05.579Z,127682.19
2018-02-13T23:11:33.332Z,127682.19
2018-02-13T23:14:01.131Z,127682.19
2018-02-13T23:16:28.886Z,127682.19
2018-02-13T23:18:56.782Z,127682.19
2018-02-13T23:21:24.535Z,127682.19
2018-02-13T23:23:52.365Z,127682.19
2018-02-13T23:26:20.137Z,127682.19
2018-02-13T23:28:47.967Z,127682.19
2018-02-13T23:31:15.749Z,127682.19
2018-02-13T23:33:43.547Z,127682.19
2018-02-13T23:36:11.291Z,127682.19
2018-02-13T23:38:39.144Z,127682.19
2018-02-13T23:41:06.890Z,127682.19
2018-02-13T23:43:34.732Z,127682.19
2018-02-13T23:46:02.508Z,127682.19
2018-02-13T23:48:30.497Z,127682.19
2018-02-13T23:50:58.257Z,127682.19
2018-02-13T23:53:26.051Z,127682.19
2018-02-13T23:55:53.895Z,127682.19
2018-02-13T23:58:21.724Z,127682.19
